Time;durP1;ratioP1;P1;durP2;ratioP2;P2;SDS_P1;SDS_P2;PMS_P1;PMS_P2;Temp;Humidity;BMP_temperature;BMP_pressure;BME280_temperature;BME280_humidity;BME280_pressure;Samples;Min_cycle;Max_cycle;Signal;HPM_P1;HPM_P2
2023/08/03 00:01:32;;;;;;;0.28;0.28;;;;;;;18.82;81.31;98919.78;5129332;27;20043;-79
2023/08/03 00:04:00;;;;;;;0.10;0.10;;;;;;;18.95;80.54;98917.75;5125317;27;20028;-80
2023/08/03 00:06:27;;;;;;;0.10;0.10;;;;;;;18.92;81.08;98936.81;5107023;28;20039;-80
2023/08/03 00:08:54;;;;;;;0.52;0.52;;;;;;;18.95;80.95;98930.34;5124712;27;20455;-81
2023/08/03 00:11:20;;;;;;;0.30;0.30;;;;;;;18.92;81.15;98944.88;5131857;27;20039;-81
2023/08/03 00:13:46;;;;;;;0.10;0.10;;;;;;;18.94;81.47;98939.38;5131382;27;20023;-81
2023/08/03 00:16:12;;;;;;;0.10;0.10;;;;;;;19.03;80.90;98939.44;5136940;27;20435;-81
2023/08/03 00:18:38;;;;;;;0.22;0.22;;;;;;;19.02;81.18;98953.00;5133383;27;20098;-81
2023/08/03 00:21:04;;;;;;;0.10;0.10;;;;;;;19.03;80.84;98962.75;5140372;27;20082;-78
2023/08/03 00:23:31;;;;;;;0.10;0.10;;;;;;;19.02;80.95;98961.03;5141189;27;20023;-78
2023/08/03 00:25:57;;;;;;;0.00;0.00;;;;;;;19.00;80.99;98963.84;5138703;27;20059;-80
2023/08/03 00:28:23;;;;;;;0.10;0.10;;;;;;;18.85;81.35;98973.16;5137286;28;20027;-81
2023/08/03 00:30:49;;;;;;;0.20;0.20;;;;;;;18.87;81.07;98971.22;5129860;28;20410;-82
2023/08/03 00:33:15;;;;;;;0.10;0.10;;;;;;;18.94;80.75;98977.81;5134970;28;20042;-80
2023/08/03 00:35:41;;;;;;;0.10;0.10;;;;;;;18.88;81.20;98978.28;5132324;28;20022;-81
2023/08/03 00:38:07;;;;;;;0.10;0.10;;;;;;;18.97;80.53;98993.63;5132245;28;20405;-81
2023/08/03 00:40:34;;;;;;;0.10;0.10;;;;;;;18.86;80.95;98991.81;5122040;28;20020;-80
2023/08/03 00:43:04;;;;;;;0.10;0.10;;;;;;;18.80;81.53;98996.84;5132017;28;20087;-81
2023/08/03 00:45:30;;;;;;;0.10;0.10;;;;;;;18.85;81.31;98994.63;5130571;28;20049;-81
2023/08/03 00:47:56;;;;;;;0.00;0.00;;;;;;;18.91;81.16;99004.88;5136717;28;20111;-81
2023/08/03 00:50:22;;;;;;;0.10;0.10;;;;;;;18.95;80.94;99006.31;5133423;28;20524;-82
2023/08/03 00:52:48;;;;;;;0.10;0.10;;;;;;;18.99;80.52;99010.47;5118011;28;20080;-81
2023/08/03 00:55:14;;;;;;;0.10;0.10;;;;;;;18.91;80.61;99021.00;5128740;28;20034;-81
2023/08/03 00:57:42;;;;;;;0.10;0.10;;;;;;;18.88;80.75;99010.50;5134677;28;20027;-82
2023/08/03 01:00:08;;;;;;;0.10;0.10;;;;;;;18.91;80.11;99015.63;5122500;28;20035;-81
2023/08/03 01:02:35;;;;;;;0.10;0.10;;;;;;;18.91;80.10;99016.47;5127109;28;20031;-82
2023/08/03 01:05:01;;;;;;;0.10;0.10;;;;;;;18.88;79.87;99021.22;5127538;28;20099;-82
2023/08/03 01:07:27;;;;;;;0.20;0.20;;;;;;;18.78;80.83;99029.19;5120782;28;20098;-82
2023/08/03 01:09:53;;;;;;;0.10;0.10;;;;;;;18.83;80.49;99036.84;5123459;28;20036;-82
2023/08/03 01:12:19;;;;;;;1.90;1.80;;;;;;;18.80;80.97;99031.75;5130271;28;20035;-82
2023/08/03 01:14:46;;;;;;;0.25;0.25;;;;;;;18.82;80.92;99032.47;5130315;28;20031;-82
2023/08/03 01:17:12;;;;;;;0.10;0.10;;;;;;;18.88;80.63;99038.16;5130904;27;20020;-81
2023/08/03 01:19:38;;;;;;;1.25;1.15;;;;;;;18.96;80.40;99037.56;5132014;27;20038;-82
2023/08/03 01:22:09;;;;;;;0.10;0.10;;;;;;;18.95;80.39;99040.38;5133690;27;20043;-82
2023/08/03 01:24:35;;;;;;;0.10;0.10;;;;;;;18.96;80.45;99040.22;5126107;27;20386;-82
2023/08/03 01:27:03;;;;;;;0.80;0.40;;;;;;;18.98;80.29;99049.00;5131548;27;20016;-82
2023/08/03 01:29:29;;;;;;;0.10;0.10;;;;;;;18.95;80.18;99043.91;5130300;27;20038;-82
2023/08/03 01:31:56;;;;;;;0.10;0.10;;;;;;;18.95;80.14;99043.91;5130291;27;20566;-82
2023/08/03 01:34:24;;;;;;;0.10;0.10;;;;;;;18.91;80.49;99050.50;5129987;27;20029;-81
2023/08/03 01:36:52;;;;;;;0.10;0.10;;;;;;;18.89;80.31;99057.78;5130463;27;20409;-81
2023/08/03 01:39:18;;;;;;;0.70;0.35;;;;;;;18.94;80.31;99062.81;5131787;27;20239;-82
2023/08/03 01:41:45;;;;;;;0.10;0.10;;;;;;;18.87;80.57;99067.81;5131720;27;20115;-81
2023/08/03 01:44:28;;;;;;;0.13;0.13;;;;;;;18.95;80.55;99068.03;5130746;27;20034;-81
2023/08/03 01:46:56;;;;;;;0.10;0.10;;;;;;;18.88;80.43;99069.53;5132706;27;20027;-81
2023/08/03 01:49:24;;;;;;;0.25;0.25;;;;;;;18.96;80.28;99063.53;5130148;27;20323;-81
2023/08/03 01:51:51;;;;;;;0.10;0.10;;;;;;;18.94;79.99;99071.72;5124837;27;20046;-81
2023/08/03 01:54:17;;;;;;;0.35;0.35;;;;;;;18.95;79.96;99070.72;5130425;27;20084;-81
2023/08/03 01:56:46;;;;;;;0.10;0.10;;;;;;;18.89;79.71;99055.09;5133582;27;20026;-81
2023/08/03 01:59:12;;;;;;;0.10;0.10;;;;;;;18.94;79.54;99058.31;5127737;27;20031;-81
2023/08/03 02:01:39;;;;;;;0.10;0.10;;;;;;;18.89;79.37;99066.72;5131360;27;20106;-81
2023/08/03 02:04:05;;;;;;;0.10;0.10;;;;;;;18.86;79.76;99074.16;5131849;27;20046;-81
2023/08/03 02:06:32;;;;;;;0.10;0.10;;;;;;;18.87;79.71;99070.50;5133753;27;20083;-81
2023/08/03 02:08:58;;;;;;;1.52;1.42;;;;;;;18.92;79.47;99071.00;5131060;27;20087;-81
2023/08/03 02:11:24;;;;;;;0.00;0.00;;;;;;;18.93;79.68;99067.34;5133677;27;20043;-82
2023/08/03 02:13:50;;;;;;;0.52;0.52;;;;;;;18.99;79.32;99065.97;5128511;27;20036;-82
2023/08/03 02:16:16;;;;;;;0.10;0.10;;;;;;;18.97;79.33;99067.94;5130621;27;20028;-81
2023/08/03 02:18:43;;;;;;;0.10;0.10;;;;;;;18.96;79.27;99072.44;5130081;27;20031;-81
2023/08/03 02:21:09;;;;;;;0.10;0.10;;;;;;;18.91;79.25;99064.75;5127247;27;20054;-81
2023/08/03 02:23:35;;;;;;;0.10;0.10;;;;;;;18.82;78.89;99070.03;5127885;27;20023;-81
2023/08/03 02:26:02;;;;;;;0.10;0.10;;;;;;;18.83;78.88;99072.59;5134172;27;20508;-81
2023/08/03 02:28:30;;;;;;;0.32;0.32;;;;;;;18.70;79.22;99071.88;5126472;27;20057;-80
2023/08/03 02:30:57;;;;;;;0.10;0.10;;;;;;;18.82;78.94;99070.88;5129544;27;20058;-81
2023/08/03 02:33:23;;;;;;;0.10;0.10;;;;;;;18.75;78.93;99070.53;5130464;27;20077;-81
2023/08/03 02:35:49;;;;;;;0.10;0.10;;;;;;;18.78;78.78;99069.44;5116616;27;20040;-81
2023/08/03 02:38:16;;;;;;;0.10;0.10;;;;;;;18.73;78.84;99061.75;5118253;27;20035;-81
2023/08/03 02:40:42;;;;;;;0.10;0.10;;;;;;;18.78;78.85;99071.25;5121715;27;20015;-81
2023/08/03 02:43:08;;;;;;;0.10;0.10;;;;;;;18.78;78.87;99073.94;5127242;27;20111;-81
2023/08/03 02:45:34;;;;;;;0.10;0.10;;;;;;;18.81;78.75;99073.69;5128337;27;20039;-81
2023/08/03 02:48:00;;;;;;;0.10;0.10;;;;;;;18.82;78.79;99070.88;5124613;27;20042;-82
2023/08/03 02:50:26;;;;;;;0.20;0.20;;;;;;;18.84;78.75;99068.06;5119830;27;20019;-81
2023/08/03 02:52:52;;;;;;;0.00;0.00;;;;;;;18.86;78.88;99076.84;5119910;27;20032;-81
2023/08/03 02:55:19;;;;;;;0.10;0.10;;;;;;;18.85;78.83;99077.81;5123288;28;20516;-81
2023/08/03 02:57:45;;;;;;;0.10;0.10;;;;;;;18.86;79.17;99076.84;5124380;27;20032;-79
2023/08/03 03:00:11;;;;;;;0.10;0.10;;;;;;;18.89;78.84;99081.94;5124352;27;20039;-81
2023/08/03 03:02:37;;;;;;;0.13;0.13;;;;;;;18.87;79.07;99092.81;5125200;28;20122;-81
2023/08/03 03:05:03;;;;;;;0.10;0.10;;;;;;;18.86;79.30;99098.31;5123572;27;20525;-81
2023/08/03 03:07:31;;;;;;;0.10;0.10;;;;;;;18.82;79.71;99103.06;5124692;27;20035;-82
2023/08/03 03:09:57;;;;;;;0.03;0.03;;;;;;;18.85;79.51;99107.31;5122649;28;20372;-81
2023/08/03 03:12:24;;;;;;;0.10;0.10;;;;;;;18.84;79.32;99103.81;5120068;27;20091;-81
2023/08/03 03:14:50;;;;;;;0.10;0.10;;;;;;;18.76;79.89;99103.56;5120443;27;20038;-81
2023/08/03 03:17:16;;;;;;;0.32;0.20;;;;;;;18.77;80.03;99113.34;5123479;28;20062;-81
2023/08/03 03:19:42;;;;;;;0.10;0.10;;;;;;;18.81;79.98;99122.81;5122074;28;20111;-80
2023/08/03 03:22:08;;;;;;;0.10;0.10;;;;;;;18.85;80.04;99120.75;5131066;28;20095;-79
2023/08/03 03:24:34;;;;;;;0.00;0.00;;;;;;;18.78;80.20;99127.59;5135419;28;20125;-80
2023/08/03 03:27:01;;;;;;;0.10;0.10;;;;;;;18.84;79.99;99127.09;5130794;27;20046;-82
2023/08/03 03:29:27;;;;;;;0.10;0.10;;;;;;;18.81;80.19;99138.94;5127553;27;20056;-82
2023/08/03 03:31:53;;;;;;;0.20;0.20;;;;;;;18.83;80.43;99146.84;5129013;27;20050;-81
2023/08/03 03:34:19;;;;;;;0.10;0.10;;;;;;;18.73;80.96;99147.59;5126507;27;20031;-82
2023/08/03 03:36:45;;;;;;;0.00;0.00;;;;;;;18.71;80.99;99157.59;5126933;28;20027;-82
2023/08/03 03:39:11;;;;;;;0.10;0.10;;;;;;;18.72;80.63;99153.94;5125929;28;20033;-81
2023/08/03 03:41:37;;;;;;;0.10;0.10;;;;;;;18.74;80.50;99156.50;5127010;27;20042;-80
2023/08/03 03:44:03;;;;;;;0.10;0.10;;;;;;;18.65;80.40;99155.41;5123955;27;20035;-81
2023/08/03 03:46:29;;;;;;;0.15;0.15;;;;;;;18.73;79.70;99162.88;5124683;28;20096;-82
2023/08/03 03:48:55;;;;;;;0.10;0.10;;;;;;;18.67;79.87;99161.50;5128290;28;20032;-81
2023/08/03 03:51:21;;;;;;;0.10;0.10;;;;;;;18.58;80.00;99162.28;5125304;27;20051;-82
2023/08/03 03:53:47;;;;;;;0.10;0.10;;;;;;;18.60;80.06;99171.03;5124422;28;20096;-81
2023/08/03 03:56:13;;;;;;;0.10;0.10;;;;;;;18.65;79.98;99171.50;5126587;28;20036;-82
2023/08/03 03:58:40;;;;;;;0.10;0.10;;;;;;;18.60;79.61;99181.75;5126471;27;20039;-81
2023/08/03 04:01:06;;;;;;;0.10;0.10;;;;;;;18.53;80.06;99183.22;5119899;27;20039;-82
2023/08/03 04:03:32;;;;;;;0.10;0.10;;;;;;;18.59;79.84;99193.47;5121690;27;20130;-81
2023/08/03 04:05:58;;;;;;;0.20;0.20;;;;;;;18.50;80.19;99194.19;5125268;28;20086;-82
2023/08/03 04:08:24;;;;;;;0.10;0.10;;;;;;;18.54;79.95;99206.38;5124997;28;20035;-81
2023/08/03 04:10:50;;;;;;;0.57;0.57;;;;;;;18.58;79.66;99206.03;5124545;27;20045;-81
2023/08/03 04:13:16;;;;;;;0.10;0.10;;;;;;;18.46;80.30;99208.84;5125862;28;20024;-81
2023/08/03 04:15:42;;;;;;;0.10;0.10;;;;;;;18.50;80.16;99199.56;5121948;28;20053;-81
2023/08/03 04:18:08;;;;;;;0.10;0.10;;;;;;;18.56;79.97;99205.28;5122297;28;20043;-82
2023/08/03 04:20:34;;;;;;;0.10;0.10;;;;;;;18.55;79.71;99210.78;5123116;28;20502;-79
2023/08/03 04:23:00;;;;;;;0.10;0.10;;;;;;;18.43;80.19;99226.03;5126197;28;20039;-81
2023/08/03 04:25:26;;;;;;;0.10;0.10;;;;;;;18.51;80.13;99220.06;5123261;28;20043;-81
2023/08/03 04:27:52;;;;;;;1.02;1.02;;;;;;;18.48;80.26;99229.19;5126514;28;20398;-82
2023/08/03 04:30:18;;;;;;;0.10;0.10;;;;;;;18.56;80.11;99225.91;5123685;28;20103;-81
2023/08/03 04:32:44;;;;;;;0.10;0.10;;;;;;;18.52;80.45;99235.19;5124358;28;20036;-81
2023/08/03 04:35:10;;;;;;;0.10;0.10;;;;;;;18.52;80.74;99236.00;5107779;28;20058;-81
2023/08/03 04:37:36;;;;;;;0.10;0.10;;;;;;;18.54;80.38;99239.44;5108021;28;20028;-81
2023/08/03 04:40:04;;;;;;;0.10;0.10;;;;;;;18.45;80.65;99242.00;5115160;28;20036;-81
2023/08/03 04:42:30;;;;;;;0.10;0.10;;;;;;;18.49;80.80;99246.13;5113443;28;20099;-79
2023/08/03 04:44:56;;;;;;;0.10;0.10;;;;;;;18.59;80.36;99247.09;5117952;28;20070;-81
2023/08/03 04:47:22;;;;;;;0.50;0.50;;;;;;;18.48;80.76;99249.78;5111261;28;20027;-81
2023/08/03 04:49:48;;;;;;;0.10;0.10;;;;;;;18.54;80.52;99254.66;5107853;28;20394;-81
2023/08/03 04:52:14;;;;;;;2.17;1.95;;;;;;;18.44;80.06;99265.25;5109153;28;20056;-81
2023/08/03 04:54:41;;;;;;;0.25;0.25;;;;;;;18.42;80.08;99268.06;5118325;27;20093;-81
2023/08/03 04:57:07;;;;;;;1.38;1.38;;;;;;;18.26;80.27;99268.38;5111992;28;20039;-81
2023/08/03 04:59:33;;;;;;;0.03;0.03;;;;;;;18.28;80.52;99270.97;5117141;28;20058;-81
2023/08/03 05:01:59;;;;;;;2.88;2.47;;;;;;;18.23;80.48;99275.81;5125011;27;20110;-81
2023/08/03 05:04:25;;;;;;;0.30;0.30;;;;;;;18.35;80.23;99280.22;5127837;27;20040;-80
2023/08/03 05:06:52;;;;;;;0.10;0.10;;;;;;;18.31;80.66;99276.09;5130375;28;20040;-81
2023/08/03 05:09:18;;;;;;;0.10;0.10;;;;;;;18.40;80.03;99290.59;5129183;27;20024;-79
2023/08/03 05:11:44;;;;;;;0.63;0.40;;;;;;;18.37;80.32;99291.69;5128838;27;20032;-81
2023/08/03 05:14:10;;;;;;;0.50;0.50;;;;;;;18.38;80.15;99287.19;5128332;27;20078;-80
2023/08/03 05:16:36;;;;;;;0.05;0.05;;;;;;;18.26;80.47;99283.63;5128853;27;20028;-79
2023/08/03 05:19:02;;;;;;;0.08;0.08;;;;;;;18.36;80.27;99295.34;5128642;27;20050;-80
2023/08/03 05:21:28;;;;;;;0.10;0.10;;;;;;;18.43;79.86;99304.63;5127681;28;20092;-80
2023/08/03 05:23:54;;;;;;;0.10;0.10;;;;;;;18.29;80.74;99287.91;5129608;28;20114;-80
2023/08/03 05:26:20;;;;;;;0.68;0.68;;;;;;;18.35;80.50;99295.47;5126470;27;20042;-80
2023/08/03 05:28:46;;;;;;;0.10;0.10;;;;;;;18.34;80.60;99296.44;5127512;27;20036;-80
2023/08/03 05:31:12;;;;;;;0.10;0.10;;;;;;;18.34;80.61;99302.66;5125484;28;20031;-81
2023/08/03 05:33:38;;;;;;;0.50;0.50;;;;;;;18.35;80.32;99309.72;5126333;27;20027;-80
2023/08/03 05:36:04;;;;;;;0.10;0.10;;;;;;;18.40;80.31;99312.06;5124718;27;20044;-81
2023/08/03 05:38:30;;;;;;;0.10;0.10;;;;;;;18.34;80.54;99316.06;5128323;27;20024;-80
2023/08/03 05:40:57;;;;;;;0.20;0.20;;;;;;;18.19;81.33;99309.19;5124533;27;20032;-81
2023/08/03 05:43:26;;;;;;;0.10;0.10;;;;;;;18.37;81.02;99313.16;5106219;28;20034;-81
2023/08/03 05:45:58;;;;;;;0.90;0.90;;;;;;;18.34;80.92;99324.09;5106177;28;20028;-81
2023/08/03 05:48:24;;;;;;;0.10;0.10;;;;;;;18.33;81.03;99310.81;5104345;28;20081;-79
2023/08/03 05:50:53;;;;;;;0.10;0.10;;;;;;;18.28;81.21;99308.50;5134067;27;20036;-79
2023/08/03 05:53:20;;;;;;;0.10;0.10;;;;;;;18.42;80.70;99308.28;5136423;28;20007;-79
2023/08/03 05:55:46;;;;;;;0.20;0.20;;;;;;;18.23;81.62;99310.66;5134126;27;20020;-79
2023/08/03 05:58:15;;;;;;;1.45;1.35;;;;;;;18.41;81.15;99314.63;5132859;28;20027;-79
2023/08/03 06:00:42;;;;;;;0.10;0.10;;;;;;;18.32;81.25;99315.34;5136253;27;20020;-79
2023/08/03 06:03:17;;;;;;;0.10;0.10;;;;;;;18.38;81.39;99317.53;5137836;27;20047;-80
2023/08/03 06:11:02;;;;;;;1.00;1.00;;;;;;;18.43;81.92;99315.34;5163130;27;20406;-80
2023/08/03 06:13:38;;;;;;;0.10;0.10;;;;;;;18.59;81.22;99317.72;5149860;27;20227;-80
2023/08/03 06:16:10;;;;;;;0.10;0.10;;;;;;;18.66;80.98;99327.97;5150719;27;20285;-80
2023/08/03 06:21:23;;;;;;;0.10;0.10;;;;;;;18.57;81.56;99330.38;5112882;27;1153682;-79
2023/08/03 06:23:53;;;;;;;0.30;0.30;;;;;;;18.59;81.60;99339.16;5129341;27;20284;-79
2023/08/03 06:26:20;;;;;;;0.10;0.10;;;;;;;18.61;81.61;99333.69;5115744;28;20074;-80
2023/08/03 06:28:49;;;;;;;0.10;0.10;;;;;;;18.63;81.93;99337.09;5115145;28;20398;-79
2023/08/03 06:31:19;;;;;;;0.90;0.90;;;;;;;18.69;81.76;99346.50;5103367;28;20035;-81
2023/08/03 06:33:46;;;;;;;0.73;0.47;;;;;;;18.71;81.42;99345.38;5106109;28;20095;-80
2023/08/03 06:36:17;;;;;;;0.68;0.68;;;;;;;18.76;81.90;99361.13;5110790;28;20113;-81
2023/08/03 06:38:44;;;;;;;0.15;0.15;;;;;;;18.69;82.19;99371.50;5115443;28;20020;-80
2023/08/03 06:41:10;;;;;;;0.10;0.10;;;;;;;18.82;81.97;99370.56;5108309;28;20059;-81
2023/08/03 06:43:37;;;;;;;0.10;0.10;;;;;;;18.79;82.26;99377.00;5108236;28;20044;-82
2023/08/03 06:46:04;;;;;;;0.75;0.75;;;;;;;18.76;82.09;99387.97;5111413;28;20054;-83
2023/08/03 06:48:31;;;;;;;0.10;0.10;;;;;;;18.58;82.38;99409.88;5116074;28;20021;-81
2023/08/03 06:50:57;;;;;;;0.68;0.68;;;;;;;18.68;82.20;99401.09;5110549;28;20054;-82
2023/08/03 06:53:23;;;;;;;0.20;0.20;;;;;;;18.63;82.25;99404.16;5104141;28;20317;-83
2023/08/03 06:55:49;;;;;;;0.03;0.03;;;;;;;18.69;82.00;99409.06;5108012;28;20073;-83
2023/08/03 06:58:17;;;;;;;0.10;0.10;;;;;;;18.92;81.33;99419.88;5102982;28;20039;-83
2023/08/03 07:00:44;;;;;;;1.42;1.33;;;;;;;18.90;81.60;99419.09;5108131;28;20089;-83
2023/08/03 07:03:11;;;;;;;0.20;0.20;;;;;;;19.00;81.68;99427.31;5110426;28;20024;-83
2023/08/03 07:05:37;;;;;;;0.10;0.10;;;;;;;19.14;81.68;99437.84;5114196;28;20067;-82
2023/08/03 07:08:04;;;;;;;0.95;0.95;;;;;;;19.17;81.49;99450.16;5112071;28;20444;-83
2023/08/03 07:10:30;;;;;;;0.17;0.17;;;;;;;19.17;81.16;99455.53;5102826;28;20023;-84
2023/08/03 07:12:56;;;;;;;0.10;0.10;;;;;;;19.13;81.72;99470.16;5106007;28;20502;-83
2023/08/03 07:15:22;;;;;;;0.20;0.20;;;;;;;19.13;81.90;99467.47;5109987;28;20021;-83
2023/08/03 07:17:48;;;;;;;0.40;0.40;;;;;;;19.30;81.01;99482.28;5105121;28;20025;-82
2023/08/03 07:20:14;;;;;;;0.05;0.05;;;;;;;19.37;80.84;99484.34;5107198;28;20411;-83
2023/08/03 07:22:41;;;;;;;0.10;0.10;;;;;;;19.45;80.55;99490.94;5106440;28;20034;-83
2023/08/03 07:25:07;;;;;;;0.20;0.20;;;;;;;19.38;80.31;99506.72;5111835;28;20032;-82
2023/08/03 07:27:33;;;;;;;0.38;0.38;;;;;;;19.47;80.20;99515.88;5107179;28;20035;-82
2023/08/03 07:29:59;;;;;;;0.10;0.10;;;;;;;19.37;80.05;99510.38;5103323;28;20037;-83
2023/08/03 07:32:26;;;;;;;0.20;0.20;;;;;;;19.43;79.77;99519.75;5105868;28;20055;-81
2023/08/03 07:34:52;;;;;;;0.10;0.10;;;;;;;19.35;80.13;99531.97;5091617;28;20108;-80
2023/08/03 07:37:18;;;;;;;1.27;1.17;;;;;;;19.36;79.97;99536.34;5092367;28;20036;-80
2023/08/03 07:39:44;;;;;;;0.10;0.10;;;;;;;19.34;79.74;99554.44;5079448;28;20036;-79
2023/08/03 07:42:10;;;;;;;0.10;0.10;;;;;;;19.38;79.60;99572.00;5083094;28;20081;-80
2023/08/03 07:44:36;;;;;;;3.38;2.08;;;;;;;19.45;79.44;99561.66;5089871;28;20194;-80
2023/08/03 07:47:02;;;;;;;0.22;0.22;;;;;;;19.57;79.32;99570.59;5086699;28;20047;-80
2023/08/03 07:49:28;;;;;;;0.10;0.10;;;;;;;19.59;78.92;99574.00;5085754;28;20644;-80
2023/08/03 07:51:54;;;;;;;0.00;0.00;;;;;;;19.56;78.04;99588.53;5087183;28;20506;-79
2023/08/03 07:54:20;;;;;;;0.80;0.68;;;;;;;19.59;78.10;99595.50;5091716;28;20036;-80
2023/08/03 07:56:46;;;;;;;0.10;0.10;;;;;;;19.68;77.91;99602.00;5084857;28;20038;-82
2023/08/03 07:59:13;;;;;;;0.00;0.00;;;;;;;19.68;77.50;99610.06;5079549;28;20024;-82
2023/08/03 08:01:39;;;;;;;0.10;0.10;;;;;;;19.60;77.22;99615.16;5083831;28;20514;-82
2023/08/03 08:04:05;;;;;;;0.20;0.20;;;;;;;19.59;77.75;99622.38;5084838;28;20039;-81
2023/08/03 08:06:31;;;;;;;0.35;0.35;;;;;;;19.63;77.57;99633.75;5084735;28;20046;-83
2023/08/03 08:08:57;;;;;;;0.10;0.10;;;;;;;19.44;77.81;99636.97;5085042;28;20398;-82
2023/08/03 08:11:23;;;;;;;0.00;0.00;;;;;;;19.64;77.32;99647.06;5089256;28;20024;-83
2023/08/03 08:13:50;;;;;;;0.10;0.10;;;;;;;19.67;77.37;99662.09;5087531;28;20024;-85
2023/08/03 08:16:16;;;;;;;0.20;0.20;;;;;;;19.79;77.32;99674.56;5084244;28;20077;-80
2023/08/03 08:18:43;;;;;;;0.00;0.00;;;;;;;19.80;76.33;99689.72;5077442;28;20040;-80
2023/08/03 08:21:11;;;;;;;0.10;0.10;;;;;;;19.91;76.38;99682.69;5092588;28;20088;-81
2023/08/03 08:23:38;;;;;;;0.10;0.10;;;;;;;19.94;76.79;99680.63;5099780;28;20081;-82
2023/08/03 08:26:19;;;;;;;0.10;0.10;;;;;;;20.21;76.91;99692.84;5094384;28;20031;-80
2023/08/03 08:28:47;;;;;;;0.10;0.10;;;;;;;20.28;76.67;99698.63;5077427;28;20454;-80
2023/08/03 08:31:13;;;;;;;0.10;0.10;;;;;;;20.40;75.39;99707.53;5085868;28;20035;-80
2023/08/03 08:33:40;;;;;;;0.05;0.05;;;;;;;20.56;74.31;99713.44;5089387;28;20081;-80
2023/08/03 08:36:06;;;;;;;0.10;0.10;;;;;;;20.69;74.77;99714.13;5090498;28;20028;-80
2023/08/03 08:38:32;;;;;;;0.00;0.00;;;;;;;20.76;73.31;99714.56;5093556;28;20410;-81
2023/08/03 08:41:03;;;;;;;0.00;0.00;;;;;;;20.84;73.93;99722.00;5081294;28;20063;-83
2023/08/03 08:43:29;;;;;;;0.15;0.15;;;;;;;20.81;72.60;99719.53;5094983;28;20070;-82
2023/08/03 08:45:55;;;;;;;0.10;0.10;;;;;;;20.96;72.94;99725.50;5086842;28;20161;-80
2023/08/03 08:48:21;;;;;;;0.20;0.20;;;;;;;21.06;71.99;99728.31;5092000;28;20036;-82
2023/08/03 08:50:50;;;;;;;0.20;0.20;;;;;;;21.20;71.72;99719.97;5090303;28;20096;-82
2023/08/03 08:53:16;;;;;;;0.52;0.52;;;;;;;21.27;71.36;99725.69;5092608;28;20085;-84
2023/08/03 08:55:42;;;;;;;0.93;0.57;;;;;;;21.42;71.35;99723.56;5083004;28;20035;-84
2023/08/03 08:58:08;;;;;;;0.00;0.00;;;;;;;21.47;71.77;99738.38;5093325;28;20024;-83
2023/08/03 09:00:45;;;;;;;1.67;1.17;;;;;;;21.48;68.39;99734.69;5095290;28;20028;-81
2023/08/03 09:03:12;;;;;;;0.00;0.00;;;;;;;21.78;71.37;99751.13;5091963;28;20514;-82
2023/08/03 09:05:39;;;;;;;0.10;0.10;;;;;;;22.02;70.69;99742.81;5088524;28;20035;-85
2023/08/03 09:08:11;;;;;;;0.00;0.00;;;;;;;22.18;69.60;99750.44;5088975;28;20039;-84
2023/08/03 09:10:53;;;;;;;0.20;0.20;;;;;;;22.09;66.40;99756.59;5088126;28;20024;-84
2023/08/03 09:16:04;;;;;;;0.10;0.10;;;;;;;21.86;65.93;99783.69;5113498;27;20401;-81
2023/08/03 09:18:31;;;;;;;0.10;0.10;;;;;;;21.84;67.77;99777.56;5093477;28;20059;-81
2023/08/03 09:21:16;;;;;;;0.10;0.10;;;;;;;21.81;67.16;99785.94;5091596;28;20028;-81
2023/08/03 09:23:42;;;;;;;0.03;0.03;;;;;;;21.68;67.73;99796.88;5092240;28;20066;-79
2023/08/03 09:26:09;;;;;;;0.10;0.10;;;;;;;21.71;68.53;99791.25;5095121;28;20024;-81
2023/08/03 09:28:38;;;;;;;0.65;0.65;;;;;;;21.72;67.97;99798.34;5090042;28;20096;-80
2023/08/03 09:31:05;;;;;;;1.45;0.55;;;;;;;21.81;68.65;99799.41;5095138;28;20043;-80
2023/08/03 09:33:32;;;;;;;0.00;0.00;;;;;;;21.98;68.45;99817.72;5095095;28;20038;-81
2023/08/03 09:38:41;;;;;;;0.35;0.35;;;;;;;21.49;68.57;99821.78;5119923;27;20382;-81
2023/08/03 09:41:10;;;;;;;0.63;0.40;;;;;;;21.22;69.73;99822.19;5097803;28;20032;-82
2023/08/03 09:43:38;;;;;;;0.15;0.15;;;;;;;21.08;70.96;99837.63;5096503;28;20238;-82
2023/08/03 09:46:05;;;;;;;0.10;0.10;;;;;;;20.96;72.81;99831.41;5097258;28;20058;-83
2023/08/03 09:48:31;;;;;;;0.10;0.10;;;;;;;20.92;73.64;99847.91;5094107;28;20036;-83
2023/08/03 09:50:58;;;;;;;0.10;0.10;;;;;;;20.68;73.96;99863.16;5094396;28;20099;-83
2023/08/03 09:53:28;;;;;;;0.10;0.10;;;;;;;20.67;74.81;99872.22;5096419;28;20031;-83
2023/08/03 09:56:00;;;;;;;0.10;0.10;;;;;;;20.65;74.91;99871.47;5096856;28;20032;-83
2023/08/03 09:58:33;;;;;;;;;;;;;;;20.82;74.52;99874.69;5096474;28;20499;-83
2023/08/03 10:01:03;;;;;;;0.65;0.63;;;;;;;20.69;74.51;99881.00;5095098;28;19917;-83
2023/08/03 10:03:31;;;;;;;0.00;0.00;;;;;;;20.50;73.67;99895.03;5094677;28;20107;-83
2023/08/03 10:06:17;;;;;;;0.10;0.10;;;;;;;20.63;74.78;99897.63;5094353;28;20060;-83
2023/08/03 10:11:22;;;;;;;0.10;0.10;;;;;;;20.72;74.39;99906.03;5105156;27;20411;-82
2023/08/03 10:13:52;;;;;;;0.00;0.00;;;;;;;20.89;72.97;99902.03;5105517;28;20036;-82
2023/08/03 10:16:18;;;;;;;0.08;0.08;;;;;;;21.03;73.45;99909.84;5100206;28;20028;-81
2023/08/03 10:18:45;;;;;;;0.10;0.10;;;;;;;21.14;73.19;99912.53;5109150;28;20033;-82
2023/08/03 10:21:12;;;;;;;0.10;0.10;;;;;;;21.17;72.06;99925.78;5097305;28;20024;-82
2023/08/03 10:23:39;;;;;;;0.47;0.47;;;;;;;21.33;72.27;99928.13;5098561;28;20024;-82
2023/08/03 10:26:07;;;;;;;0.20;0.20;;;;;;;21.38;72.15;99934.97;5098021;28;20025;-82
2023/08/03 10:31:19;;;;;;;0.22;0.22;;;;;;;21.38;69.10;99962.75;5117641;27;20471;-81
2023/08/03 10:39:09;;;;;;;0.10;0.10;;;;;;;21.11;69.67;99992.72;5088313;27;20472;-82
2023/08/03 10:41:38;;;;;;;0.77;0.77;;;;;;;21.05;69.93;99998.59;5084463;28;20436;-82
2023/08/03 10:52:19;;;;;;;0.00;0.00;;;;;;;20.44;72.52;100038.13;5112536;27;20381;-81
2023/08/03 10:54:46;;;;;;;0.10;0.10;;;;;;;20.14;72.30;100041.25;5090091;28;20035;-82
2023/08/03 10:59:51;;;;;;;0.10;0.10;;;;;;;19.79;73.93;100063.41;5057098;28;20420;-81
2023/08/03 11:02:22;;;;;;;0.03;0.03;;;;;;;19.72;73.45;100065.69;5044547;28;20045;-81
2023/08/03 11:04:51;;;;;;;0.10;0.10;;;;;;;19.68;73.33;100078.47;5034681;28;20064;-81
2023/08/03 11:07:24;;;;;;;0.10;0.10;;;;;;;19.62;73.88;100094.19;5030279;28;20292;-81
2023/08/03 11:09:52;;;;;;;0.00;0.00;;;;;;;19.50;74.43;100102.16;5025040;28;20036;-82
2023/08/03 11:12:22;;;;;;;0.20;0.20;;;;;;;19.35;74.98;100098.69;5028449;28;20053;-82
2023/08/03 11:14:51;;;;;;;0.10;0.10;;;;;;;19.38;75.41;100095.78;5031946;28;20025;-83
2023/08/03 11:17:22;;;;;;;0.40;0.40;;;;;;;19.39;75.87;100108.25;5033797;28;20437;-82
2023/08/03 11:19:49;;;;;;;0.10;0.10;;;;;;;19.39;75.98;100116.31;5033624;28;20041;-83
2023/08/03 11:22:15;;;;;;;0.10;0.10;;;;;;;19.19;76.06;100119.47;5031315;28;20041;-83
2023/08/03 11:24:42;;;;;;;0.10;0.10;;;;;;;19.44;75.66;100123.19;5025523;28;20037;-83
2023/08/03 11:27:11;;;;;;;0.10;0.10;;;;;;;19.60;75.91;100128.34;5024306;28;20080;-81
2023/08/03 11:29:38;;;;;;;0.00;0.00;;;;;;;19.75;76.24;100123.75;5038098;28;20108;-83
2023/08/03 11:32:05;;;;;;;0.10;0.10;;;;;;;19.92;75.60;100133.34;5034430;28;20018;-81
2023/08/03 11:34:32;;;;;;;0.10;0.10;;;;;;;19.96;74.40;100141.09;5047619;28;20057;-81
2023/08/03 11:36:58;;;;;;;0.10;0.10;;;;;;;20.07;74.29;100142.16;5037167;28;20030;-80
2023/08/03 11:39:24;;;;;;;0.00;0.00;;;;;;;20.11;73.28;100155.28;5035169;28;20021;-80
2023/08/03 11:41:53;;;;;;;0.10;0.10;;;;;;;20.06;73.40;100161.94;5035627;28;20042;-81
2023/08/03 11:44:21;;;;;;;0.20;0.20;;;;;;;20.02;72.84;100172.91;5035883;28;20545;-81
2023/08/03 11:47:04;;;;;;;0.10;0.10;;;;;;;20.03;72.68;100174.63;5035815;28;20042;-80
2023/08/03 11:49:31;;;;;;;0.10;0.10;;;;;;;20.04;72.93;100175.50;5037822;28;20033;-80
2023/08/03 11:52:00;;;;;;;0.10;0.10;;;;;;;20.11;73.19;100186.69;5035325;28;20026;-81
2023/08/03 11:54:29;;;;;;;0.40;0.40;;;;;;;20.11;73.29;100192.94;5034794;28;20483;-80
2023/08/03 11:58:07;;;;;;;0.10;0.10;;;;;;;20.05;73.05;100198.75;5032305;28;20049;-80
2023/08/03 11:59:44;;;;;;;0.00;0.00;;;;;;;19.89;73.60;100209.69;5028475;28;20092;-79
2023/08/03 12:02:10;;;;;;;0.22;0.22;;;;;;;19.79;73.97;100219.31;5031564;28;20021;-81
2023/08/03 12:04:37;;;;;;;0.10;0.10;;;;;;;19.63;74.53;100220.38;5041781;28;20034;-82
2023/08/03 12:07:03;;;;;;;3.97;1.98;;;;;;;19.65;74.40;100234.56;5034305;28;20107;-81